Flight Track Log - Related Links

Times and Time Zones

All times are in EDT time to prevent confusion due to time zone crossing. See the UAL395 flight status page for this flight to view local times or setup timezone preferences in your user account.

Time Position Orientation Groundspeed Altitude Reporting Facility
EDT Latitude Longitude Course Direction KTS MPH feet Rate Location/Type
Sun 02:44:47 PM 38.9333 -77.5333 277° West 169 194 1,900  Level Potomac TRACON
Sun 02:45:47 PM 38.9333 -77.6000 270° West 232 267 4,100 2,518 Climbing Potomac TRACON
Sun 02:46:39 PM 38.9078 -77.6803 248° West 249 287 6,600 2,867 Climbing Washington Center
Sun 02:47:40 PM 38.8897 -77.7572 253° West 270 311 9,500 2,410 Climbing Washington Center
Sun 02:48:41 PM 38.8797 -77.8556 263° West 307 353 11,500 3,203 Climbing Washington Center
Sun 02:49:00 PM 38.9500 -78.2690 270° West  Level FlightAware Approximate
Sun 02:49:38 PM 38.8708 -77.9806 265° West 319 367 15,800  Level Washington Center
Sun 02:50:00 PM 38.9542 -78.4121 277° West  Level FlightAware Approximate
Sun 02:50:39 PM 38.8686 -78.1006 269° West 324 373 16,900  Level Washington Center
Sun 02:51:40 PM 38.8636 -78.2336 267° West 347 399 17,900 1,513 Climbing Washington Center
Sun 02:52:38 PM 38.8606 -78.3722 268° West 377 434 19,900 1,866 Climbing Washington Center
Sun 02:53:39 PM 38.8611 -78.5189 270° West 394 453 21,600 1,554 Climbing Washington Center
Sun 02:55:24 PM 38.8600 -78.7850 270° West 406 467 24,200 1,653 Climbing Indianapolis Center
Sun 02:56:26 PM 38.8617 -78.9381 271° West 435 501 26,200 1,935 Climbing Indianapolis Center
Sun 02:57:28 PM 38.8742 -79.1181 275° West 434 499 28,200 1,113 Climbing Indianapolis Center
Sun 02:58:30 PM 38.8964 -79.2725 281° West 448 516 28,500 339 Climbing Indianapolis Center
Sun 02:59:32 PM 38.9186 -79.4408 280° West 484 557 28,900 726 Climbing Indianapolis Center
Sun 03:00:34 PM 38.9456 -79.6403 280° West 491 565 30,000 1,143 Climbing Indianapolis Center
Sun 03:01:38 PM 38.9708 -79.8078 281° West 500 575 31,300 1,016 Climbing Washington Center
Sun 03:02:38 PM 38.9917 -79.9797 279° West 500 575 32,100 934 Climbing Washington Center
Sun 03:03:40 PM 39.0125 -80.1519 279° West 488 562 33,200 919 Climbing Indianapolis Center
Sun 03:04:42 PM 39.0339 -80.3206 279° West 481 554 34,000 774 Climbing Indianapolis Center
Sun 03:05:44 PM 39.0556 -80.4919 279° West 486 559 34,800 774 Climbing Indianapolis Center
Sun 03:06:46 PM 39.1156 -80.6847 292° West 496 571 35,600 581 Climbing Indianapolis Center
Sun 03:07:48 PM 39.1850 -80.8375 300° West 497 572 36,000 194 Climbing Indianapolis Center
Sun 03:08:50 PM 39.2519 -80.9900 300° West 493 567 36,000  Level Indianapolis Center
Sun 03:09:52 PM 39.3206 -81.1447 300° West 499 574 36,000  Level Indianapolis Center
Sun 03:10:54 PM 39.3889 -81.3017 299° West 504 580 36,000  Level Indianapolis Center
Sun 03:11:56 PM 39.4564 -81.4589 299° West 504 580 36,000  Level Indianapolis Center
Sun 03:12:57 PM 39.5381 -81.6472 299° West 502 578 36,000  Level Indianapolis Center
Sun 03:13:59 PM 39.6058 -81.8064 299° West 505 581 36,000  Level Indianapolis Center
Sun 03:15:01 PM 39.6742 -81.9647 299° West 505 581 36,000  Level Indianapolis Center
Sun 03:16:03 PM 39.7414 -82.1231 299° West 505 581 36,000  Level Indianapolis Center
Sun 03:17:05 PM 39.8100 -82.2853 299° West 508 585 36,000  Level Indianapolis Center
Sun 03:18:07 PM 39.8897 -82.4744 299° West 506 582 36,000  Level Indianapolis Center
Sun 03:19:09 PM 39.9575 -82.6353 299° West 504 580 36,000  Level Indianapolis Center
Sun 03:20:11 PM 40.0250 -82.7969 299° West 505 581 36,000 -48 Level Indianapolis Center
Sun 03:21:13 PM 40.0914 -82.9586 298° West 505 581 35,900  Descending Indianapolis Center
Sun 03:22:15 PM 40.1578 -83.1200 298° West 504 580 36,000 48 Climbing Indianapolis Center
Sun 03:23:17 PM 40.2250 -83.2817 299° West 505 581 36,000  Level Indianapolis Center
Sun 03:24:19 PM 40.3022 -83.4706 298° West 504 580 36,000  Level Indianapolis Center
Sun 03:25:21 PM 40.3683 -83.6331 298° West 504 580 36,000  Level Indianapolis Center
Sun 03:26:23 PM 40.4325 -83.7939 298° West 497 572 36,000 -242 Level Indianapolis Center
Sun 03:27:25 PM 40.4969 -83.9567 298° West 500 575 35,500 -726 Descending Indianapolis Center
Sun 03:28:27 PM 40.5622 -84.1197 298° West 501 577 34,500 -726 Descending Indianapolis Center
Sun 03:29:29 PM 40.6283 -84.2850 298° West 507 583 34,000 -242 Descending Indianapolis Center
Sun 03:30:31 PM 40.7039 -84.4786 297° West 506 582 34,000  Level Indianapolis Center
Sun 03:31:34 PM 40.7692 -84.6442 298° West 507 583 34,000  Level Indianapolis Center
Sun 03:32:36 PM 40.8350 -84.8086 298° West 503 579 34,000  Level Indianapolis Center
Sun 03:33:38 PM 40.9011 -84.9819 297° West 501 577 34,000  Level Indianapolis Center
Sun 03:34:40 PM 40.9642 -85.1444 297° West 500 575 34,000  Level Indianapolis Center
Sun 03:35:42 PM 41.0467 -85.2908 307° West 500 575 34,000  Level Indianapolis Center
Sun 03:36:44 PM 41.1283 -85.4342 307° West 498 573 34,000 -581 Level Indianapolis Center
Sun 03:37:46 PM 41.1742 -85.6042 290° West 496 571 32,800 -2,488 Descending Indianapolis Center
Sun 03:38:47 PM 41.2264 -85.8103 289° West 495 570 28,900 -3,366 Descending Indianapolis Center
Sun 03:39:49 PM 41.2700 -85.9817 289° West 494 568 25,900 -1,887 Descending Indianapolis Center
Sun 03:40:51 PM 41.3125 -86.1514 288° West 490 564 25,000 -532 Descending Indianapolis Center
Sun 03:41:53 PM 41.3567 -86.3247 289° West 496 571 24,800 -1,274 Descending Indianapolis Center
Sun 03:43:17 PM 41.4125 -86.5564 288° West 491 565 21,900 -2,219 Descending Chicago Center
Sun 03:44:19 PM 41.4561 -86.7317 288° West 469 540 19,400 -2,323 Descending Chicago Center
Sun 03:45:21 PM 41.4942 -86.8853 288° West 443 510 17,100 -2,496 Descending Chicago Center
Sun 03:46:24 PM 41.5358 -87.0583 288° West 415 478 14,200 -2,448 Descending Chicago Center
Sun 03:47:26 PM 41.5689 -87.1908 288° West 380 437 12,000 -1,984 Descending Chicago Center
Sun 03:48:28 PM 41.6161 -87.3047 299° West 366 421 10,100 -968 Descending Chicago Center
Sun 03:49:30 PM 41.6800 -87.4028 311° West 357 411 10,000 -290 Descending Chicago Center
Sun 03:50:32 PM 41.7442 -87.5069 310° West 307 353 9,500 -968 Descending Chicago Center
Sun 03:51:34 PM 41.7942 -87.5886 309° West 289 333 8,000 -1,161 Descending Chicago Center
Sun 03:52:36 PM 41.8428 -87.6694 309° West 283 326 7,100 -484 Descending Chicago Center
Sun 03:53:38 PM 41.8939 -87.7139 327° Northwest 244 281 7,000 -48 Descending Chicago Center
Sun 03:54:40 PM 41.9517 -87.7114 North 216 249 7,000 -726 Level Chicago Center
Sun 03:55:42 PM 42.0106 -87.6556 35° Northeast 217 250 5,500 -1,161 Descending Chicago Center
Sun 03:56:44 PM 42.0589 -87.6069 37° Northeast 218 251 4,600 -1,065 Descending Chicago Center
Sun 03:57:46 PM 42.1064 -87.6064 360° North 222 255 3,300 -774 Descending Chicago Center
Sun 03:58:48 PM 42.0922 -87.6708 254° West 197 227 3,000 -290 Descending Chicago Center

Login

Don't have an account? Register now (free) for customized features, flight alerts, and more!